Relevés horaires Bouveret (Suisse)


Relevés horaires à Bouveret - Mardi 06 Sept. 2022
Heure UTC1 Température [°C] Vent [km/h] Hum. [%] Pres.4 [hPa] Visi. [Km] Nébu. [octa] Préc.5 [mm] Cond.
2m. Res. Ros. Dir.2 Vit. Moy. Raf.3
23:00 20.1 19.9 15.9 SSE 25.9 -- 37.0 77 1016.3(-0.2/3h) -- -- -- --
22:00 19.2 19.2 16.4 ESE 13.0 -- 38.9 84 1016.4(0.6/3h) -- -- -- --
21:00 21.0 21.0 16.3 SSE 22.2 -- 48.2 75 1015.9(0.4/3h) -- -- -- --
20:00 20.4 20.4 15.7 SSE 11.1 -- 31.5 74 1016.5(1.2/3h) -- -- -- --
19:00 22.7 22.7 14.6 SE 7.4 -- 48.2 60 1015.2(0.2/3h) -- -- -- --
18:00 22.7 22.7 17.4 SE 13.0 -- 33.3 72 1015.2(0.0/3h) -- -- -- --
17:00 22.3 22.3 18.4 SE 14.8 -- 25.9 79 1014.9(-0.8/3h) -- -- -- --
16:00 23.9 23.9 18.2 ONO 5.6 -- 18.5 70 1014.8(-1.3/3h) -- -- -- --
15:00 23.5 23.5 19.5 ONO 16.7 -- 22.2 78 1015.1(-1.4/3h) -- -- -- --
14:00 23.4 23.4 18.5 ONO 14.8 -- 20.4 74 1015.6(-1.9/3h) -- -- -- --
13:00 22.8 22.8 18.3 NO 11.1 -- 16.7 76 1016.3(-2.1/3h) -- -- -- --
12:00 23.4 23.4 15.5 ONO 7.4 -- 33.3 61 1016.5(-3.0/3h) -- -- -- --
11:00 21.3 21.3 17.2 ONO 7.4 -- 11.1 77 1017.9(-0.1/3h) -- -- -- --
10:00 20.9 20.9 17.2 ONO 5.6 -- 13.0 79 1018.8(0.6/3h) -- -- -- --
09:00 20.8 20.8 17.6 N 11.1 -- 33.3 82 1020.1(1.7/3h) -- -- -- --
08:00 23.0 23.0 12.3 SSE 11.1 -- 20.4 51 1017.8(-0.3/3h) -- -- -- --
07:00 21.2 21.2 12.6 SE 11.1 -- 22.2 58 1018.1(0.1/3h) -- -- -- --
06:00 20.8 20.8 12.4 SSE 11.1 -- 24.1 59 1018.3(0.2/3h) -- -- -- --
05:00 20.2 20.2 14.2 S 5.6 -- 20.4 68 1018.5(0.0/3h) -- -- -- --
04:00 20.9 20.9 13.3 SSE 9.3 -- 20.4 62 1018.1(-0.3/3h) -- -- -- --
03:00 20.2 20.2 14.4 S 9.3 -- 14.8 69 1018.2(-0.1/3h) -- -- -- --
02:00 19.1 19.1 14.9 ESE 5.6 -- 11.1 77 1018.7(0.6/3h) -- -- -- --
01:00 20.4 20.4 15.0 SE 7.4 -- 13.0 71 1018.5(0.3/3h) -- -- -- --
00:00 21.0 21.0 16.3 SE 7.4 -- 20.4 75 1018.2(0.0/3h) -- -- -- --

1 Coordinated Universal Time. Actuellement il est 03:00 locale et 01:00 UTC.

2 Le vent souffle depuis la direction indiquée vers la direction oposée.

3 Les rafales max. sont disponible 40 min après l'heure du relevé.

4 Pour les stations d'altitude (plus de 600m) le géopotentiel du niveau le plus proche de la pression obligatoire est indiqué.

5 Les stations disposant d'un diffuseur peuvent indiquer "trace". Cela signifie que des précipitations ont touchés le sol mais que la quantité est inférieure à 0.1 mm.

Copyright

Les données affichées sur cette page sont la propriété exclusive de Météo Suisse.

Récapitulatif de la journée
Température [°C] Vent [km/h] Ensoleillement4 [h] Precipitations totale5 [mm] Pression [Hpa]
Min1 Max.2 Moy.3 Max. Min Max.
18.9 24.0 0 48.2 0 h 0 min 0 1014.8 1020.1

1 Température minimale relevée entre 18:00 UTC la veille et 18:00 UTC le jour donné.

2 Température maximale relevée entre 06:00 UTC le jour donné et 06:00 UTC le lendemain.

3 Vent moyen de la journée basé sur les relevés horaires.

4 Ensoleillement en heures relevé entre 06:00 UTC la veille et 06:00 UTC le jour donné.

5 Précipitations totales tombées entre 06:00 UTC la jour donné et 06:00 UTC le lendemain.

Graphiques horaires